sensor_id;sensor_type;location;lat;lon;timestamp;pressure;altitude;pressure_sealevel;temperature;humidity
77288;BME280;66345;42.694;23.346;2023-08-07T00:01:23;94962.78;;;17.76;67.67
77288;BME280;66345;42.694;23.346;2023-08-07T00:03:49;94950.94;;;17.60;68.41
77288;BME280;66345;42.694;23.346;2023-08-07T00:06:15;94959.00;;;17.60;68.21
77288;BME280;66345;42.694;23.346;2023-08-07T00:08:40;94943.41;;;17.57;68.59
77288;BME280;66345;42.694;23.346;2023-08-07T00:11:08;94957.06;;;17.56;68.88
77288;BME280;66345;42.694;23.346;2023-08-07T00:13:34;94954.69;;;17.59;68.70
77288;BME280;66345;42.694;23.346;2023-08-07T00:15:59;94966.22;;;17.60;68.82
77288;BME280;66345;42.694;23.346;2023-08-07T00:18:25;94952.66;;;17.66;68.53
77288;BME280;66345;42.694;23.346;2023-08-07T00:20:50;94959.59;;;17.79;68.10
77288;BME280;66345;42.694;23.346;2023-08-07T00:23:15;94961.13;;;17.58;68.67
77288;BME280;66345;42.694;23.346;2023-08-07T00:25:41;94957.19;;;17.66;68.20
77288;BME280;66345;42.694;23.346;2023-08-07T00:28:06;94955.91;;;17.68;68.12
77288;BME280;66345;42.694;23.346;2023-08-07T00:30:32;94963.31;;;17.61;68.57
77288;BME280;66345;42.694;23.346;2023-08-07T00:32:57;94963.16;;;17.51;68.50
77288;BME280;66345;42.694;23.346;2023-08-07T00:35:23;94963.31;;;17.44;69.14
77288;BME280;66345;42.694;23.346;2023-08-07T00:37:48;94967.97;;;17.32;69.88
77288;BME280;66345;42.694;23.346;2023-08-07T00:40:14;94966.34;;;17.31;69.84
77288;BME280;66345;42.694;23.346;2023-08-07T00:42:39;94966.41;;;17.36;69.34
77288;BME280;66345;42.694;23.346;2023-08-07T00:45:05;94969.44;;;17.40;68.96
77288;BME280;66345;42.694;23.346;2023-08-07T00:47:31;94968.84;;;17.38;69.31
77288;BME280;66345;42.694;23.346;2023-08-07T00:49:58;94963.66;;;17.48;68.97
77288;BME280;66345;42.694;23.346;2023-08-07T00:52:24;94965.69;;;17.24;69.47
77288;BME280;66345;42.694;23.346;2023-08-07T00:54:50;94971.25;;;17.23;69.47
77288;BME280;66345;42.694;23.346;2023-08-07T00:57:16;94979.31;;;17.23;69.24
77288;BME280;66345;42.694;23.346;2023-08-07T00:59:42;94985.25;;;17.25;69.58
77288;BME280;66345;42.694;23.346;2023-08-07T01:02:09;94984.53;;;17.29;69.55
77288;BME280;66345;42.694;23.346;2023-08-07T01:04:35;94991.13;;;17.38;69.81
77288;BME280;66345;42.694;23.346;2023-08-07T01:07:00;94993.72;;;17.33;70.30
77288;BME280;66345;42.694;23.346;2023-08-07T01:09:26;95000.28;;;17.26;70.52
77288;BME280;66345;42.694;23.346;2023-08-07T01:12:13;95010.22;;;17.25;70.59
77288;BME280;66345;42.694;23.346;2023-08-07T01:17:12;95008.19;;;17.49;69.62
77288;BME280;66345;42.694;23.346;2023-08-07T01:19:40;95012.97;;;17.30;71.40
77288;BME280;66345;42.694;23.346;2023-08-07T01:24:32;95015.22;;;17.22;71.21
77288;BME280;66345;42.694;23.346;2023-08-07T01:27:07;95014.16;;;17.23;70.48
77288;BME280;66345;42.694;23.346;2023-08-07T01:32:32;95009.72;;;17.28;70.11
77288;BME280;66345;42.694;23.346;2023-08-07T01:35:01;95004.09;;;17.13;70.87
77288;BME280;66345;42.694;23.346;2023-08-07T01:37:29;94998.31;;;17.21;70.88
77288;BME280;66345;42.694;23.346;2023-08-07T01:39:58;95006.09;;;17.06;71.22
77288;BME280;66345;42.694;23.346;2023-08-07T01:42:24;95000.34;;;17.14;70.71
77288;BME280;66345;42.694;23.346;2023-08-07T01:44:50;94999.88;;;17.17;70.42
77288;BME280;66345;42.694;23.346;2023-08-07T01:47:15;95001.47;;;17.01;71.57
77288;BME280;66345;42.694;23.346;2023-08-07T01:49:41;94994.53;;;17.17;71.13
77288;BME280;66345;42.694;23.346;2023-08-07T01:52:07;94997.19;;;17.17;70.77
77288;BME280;66345;42.694;23.346;2023-08-07T01:54:33;94991.25;;;17.15;70.69
77288;BME280;66345;42.694;23.346;2023-08-07T01:56:58;94996.94;;;17.18;70.71
77288;BME280;66345;42.694;23.346;2023-08-07T01:59:24;94998.31;;;17.21;70.76
77288;BME280;66345;42.694;23.346;2023-08-07T02:01:49;94997.88;;;17.24;70.24
77288;BME280;66345;42.694;23.346;2023-08-07T02:04:15;95007.19;;;17.22;70.84
77288;BME280;66345;42.694;23.346;2023-08-07T02:06:40;95012.41;;;17.28;70.55
77288;BME280;66345;42.694;23.346;2023-08-07T02:09:05;95010.59;;;17.17;70.45
77288;BME280;66345;42.694;23.346;2023-08-07T02:11:31;95015.38;;;17.15;70.41
77288;BME280;66345;42.694;23.346;2023-08-07T02:13:56;95016.03;;;17.22;70.20
77288;BME280;66345;42.694;23.346;2023-08-07T02:16:22;95018.56;;;17.12;70.53
77288;BME280;66345;42.694;23.346;2023-08-07T02:18:47;95025.47;;;17.08;70.71
77288;BME280;66345;42.694;23.346;2023-08-07T02:21:13;95026.94;;;17.15;70.33
77288;BME280;66345;42.694;23.346;2023-08-07T02:23:38;95029.38;;;17.17;70.59
77288;BME280;66345;42.694;23.346;2023-08-07T02:26:04;95037.22;;;17.07;70.34
77288;BME280;66345;42.694;23.346;2023-08-07T02:28:29;95038.56;;;16.92;70.65
77288;BME280;66345;42.694;23.346;2023-08-07T02:30:54;95037.59;;;16.99;71.21
77288;BME280;66345;42.694;23.346;2023-08-07T02:33:20;95042.53;;;16.90;71.14
77288;BME280;66345;42.694;23.346;2023-08-07T02:35:46;95039.72;;;16.97;71.11
77288;BME280;66345;42.694;23.346;2023-08-07T02:38:11;95041.63;;;16.84;71.15
77288;BME280;66345;42.694;23.346;2023-08-07T02:40:37;95040.81;;;16.84;71.52
77288;BME280;66345;42.694;23.346;2023-08-07T02:43:03;95041.63;;;16.84;71.62
77288;BME280;66345;42.694;23.346;2023-08-07T02:45:29;95037.41;;;16.88;71.42
77288;BME280;66345;42.694;23.346;2023-08-07T02:47:54;95038.19;;;16.72;71.81
77288;BME280;66345;42.694;23.346;2023-08-07T02:50:20;95041.09;;;16.71;72.01
77288;BME280;66345;42.694;23.346;2023-08-07T02:52:47;95047.75;;;16.56;72.76
77288;BME280;66345;42.694;23.346;2023-08-07T02:55:12;95055.78;;;16.56;72.66
77288;BME280;66345;42.694;23.346;2023-08-07T02:57:37;95049.56;;;16.68;72.49
77288;BME280;66345;42.694;23.346;2023-08-07T03:00:03;95051.22;;;16.57;73.02
77288;BME280;66345;42.694;23.346;2023-08-07T03:02:29;95061.59;;;16.65;72.55
77288;BME280;66345;42.694;23.346;2023-08-07T03:04:54;95060.66;;;16.59;72.91
77288;BME280;66345;42.694;23.346;2023-08-07T03:07:20;95058.34;;;16.63;72.25
77288;BME280;66345;42.694;23.346;2023-08-07T03:09:47;95053.06;;;16.68;72.40
77288;BME280;66345;42.694;23.346;2023-08-07T03:12:13;95061.59;;;16.65;72.67
77288;BME280;66345;42.694;23.346;2023-08-07T03:14:38;95059.69;;;16.77;71.87
77288;BME280;66345;42.694;23.346;2023-08-07T03:17:04;95062.75;;;16.69;72.23
77288;BME280;66345;42.694;23.346;2023-08-07T03:19:29;95075.69;;;16.72;72.25
77288;BME280;66345;42.694;23.346;2023-08-07T03:21:55;95075.88;;;16.82;71.85
77288;BME280;66345;42.694;23.346;2023-08-07T03:24:20;95071.88;;;16.97;71.43
77288;BME280;66345;42.694;23.346;2023-08-07T03:26:46;95077.56;;;17.00;70.95
77288;BME280;66345;42.694;23.346;2023-08-07T03:29:12;95073.50;;;16.98;70.95
77288;BME280;66345;42.694;23.346;2023-08-07T03:31:39;95083.56;;;16.90;70.76
77288;BME280;66345;42.694;23.346;2023-08-07T03:34:05;95088.72;;;16.80;71.39
77288;BME280;66345;42.694;23.346;2023-08-07T03:36:30;95094.91;;;16.69;72.09
77288;BME280;66345;42.694;23.346;2023-08-07T03:38:55;95099.41;;;16.69;71.44
77288;BME280;66345;42.694;23.346;2023-08-07T03:41:21;95102.47;;;16.60;71.97
77288;BME280;66345;42.694;23.346;2023-08-07T03:43:47;95108.28;;;16.69;71.63
77288;BME280;66345;42.694;23.346;2023-08-07T03:46:13;95118.06;;;16.75;71.16
77288;BME280;66345;42.694;23.346;2023-08-07T03:48:38;95117.16;;;16.70;71.51
77288;BME280;66345;42.694;23.346;2023-08-07T03:51:07;95110.28;;;16.74;70.96
77288;BME280;66345;42.694;23.346;2023-08-07T03:53:36;95116.44;;;16.86;70.89
77288;BME280;66345;42.694;23.346;2023-08-07T03:56:02;95114.44;;;16.93;71.09
77288;BME280;66345;42.694;23.346;2023-08-07T03:58:28;95115.84;;;16.84;71.05
77288;BME280;66345;42.694;23.346;2023-08-07T04:00:55;95113.41;;;16.82;70.86
77288;BME280;66345;42.694;23.346;2023-08-07T04:03:20;95115.03;;;16.83;70.52
77288;BME280;66345;42.694;23.346;2023-08-07T04:05:46;95118.97;;;16.92;70.97
77288;BME280;66345;42.694;23.346;2023-08-07T04:08:12;95119.25;;;16.79;70.12
77288;BME280;66345;42.694;23.346;2023-08-07T04:10:37;95129.47;;;16.94;70.18
77288;BME280;66345;42.694;23.346;2023-08-07T04:13:02;95131.78;;;17.02;69.29
77288;BME280;66345;42.694;23.346;2023-08-07T04:15:28;95134.59;;;16.96;68.77
77288;BME280;66345;42.694;23.346;2023-08-07T04:17:53;95135.59;;;17.06;68.84
77288;BME280;66345;42.694;23.346;2023-08-07T04:20:19;95133.66;;;17.02;68.50
77288;BME280;66345;42.694;23.346;2023-08-07T04:22:45;95139.81;;;17.02;68.38
77288;BME280;66345;42.694;23.346;2023-08-07T04:25:12;95140.06;;;17.01;68.64
77288;BME280;66345;42.694;23.346;2023-08-07T04:27:38;95144.06;;;17.15;68.12
77288;BME280;66345;42.694;23.346;2023-08-07T04:30:05;95150.13;;;17.22;68.29
77288;BME280;66345;42.694;23.346;2023-08-07T04:32:30;95142.53;;;17.31;67.11
77288;BME280;66345;42.694;23.346;2023-08-07T04:34:57;95149.38;;;17.38;67.00
77288;BME280;66345;42.694;23.346;2023-08-07T04:37:23;95146.59;;;17.33;67.38
77288;BME280;66345;42.694;23.346;2023-08-07T04:39:49;95147.66;;;17.32;67.07
77288;BME280;66345;42.694;23.346;2023-08-07T04:42:14;95145.72;;;17.44;67.21
77288;BME280;66345;42.694;23.346;2023-08-07T04:44:39;95146.53;;;17.45;67.18
77288;BME280;66345;42.694;23.346;2023-08-07T04:47:05;95151.38;;;17.60;65.63
77288;BME280;66345;42.694;23.346;2023-08-07T04:49:31;95152.16;;;17.43;66.20
77288;BME280;66345;42.694;23.346;2023-08-07T04:51:56;95153.16;;;17.54;65.87
77288;BME280;66345;42.694;23.346;2023-08-07T04:54:22;95154.66;;;17.62;66.10
77288;BME280;66345;42.694;23.346;2023-08-07T04:56:47;95151.22;;;17.78;65.49
77288;BME280;66345;42.694;23.346;2023-08-07T04:59:12;95141.84;;;17.81;65.03
77288;BME280;66345;42.694;23.346;2023-08-07T05:01:38;95138.06;;;17.93;64.74
77288;BME280;66345;42.694;23.346;2023-08-07T05:04:04;95145.19;;;17.88;64.87
77288;BME280;66345;42.694;23.346;2023-08-07T05:06:31;95141.84;;;17.97;64.92
77288;BME280;66345;42.694;23.346;2023-08-07T05:08:56;95145.84;;;18.28;62.71
77288;BME280;66345;42.694;23.346;2023-08-07T05:11:22;95137.25;;;18.65;60.78
77288;BME280;66345;42.694;23.346;2023-08-07T05:13:47;95131.50;;;18.95;59.32
77288;BME280;66345;42.694;23.346;2023-08-07T05:16:13;95132.94;;;20.01;56.45
77288;BME280;66345;42.694;23.346;2023-08-07T05:18:38;95126.03;;;21.47;52.29
77288;BME280;66345;42.694;23.346;2023-08-07T05:21:04;95118.53;;;22.05;49.37
77288;BME280;66345;42.694;23.346;2023-08-07T05:23:29;95114.22;;;22.75;48.26
77288;BME280;66345;42.694;23.346;2023-08-07T05:25:55;95118.72;;;24.48;44.32
77288;BME280;66345;42.694;23.346;2023-08-07T05:28:21;95120.94;;;25.47;40.81
77288;BME280;66345;42.694;23.346;2023-08-07T05:30:46;95128.50;;;26.44;39.47
77288;BME280;66345;42.694;23.346;2023-08-07T05:33:12;95129.94;;;25.42;40.56
77288;BME280;66345;42.694;23.346;2023-08-07T05:35:40;95128.81;;;26.43;38.23
77288;BME280;66345;42.694;23.346;2023-08-07T05:38:05;95134.94;;;25.78;39.71
77288;BME280;66345;42.694;23.346;2023-08-07T05:40:31;95122.88;;;26.41;39.20
77288;BME280;66345;42.694;23.346;2023-08-07T05:42:56;95126.50;;;26.82;37.82
77288;BME280;66345;42.694;23.346;2023-08-07T05:45:21;95131.69;;;27.80;35.67
77288;BME280;66345;42.694;23.346;2023-08-07T05:47:47;95126.75;;;27.27;37.01
77288;BME280;66345;42.694;23.346;2023-08-07T05:50:12;95135.94;;;27.18;37.14
77288;BME280;66345;42.694;23.346;2023-08-07T05:52:38;95130.00;;;28.07;35.04
77288;BME280;66345;42.694;23.346;2023-08-07T05:55:04;95123.69;;;28.20;34.99
77288;BME280;66345;42.694;23.346;2023-08-07T05:57:31;95127.81;;;28.31;35.16
77288;BME280;66345;42.694;23.346;2023-08-07T05:59:56;95131.19;;;27.09;36.44
77288;BME280;66345;42.694;23.346;2023-08-07T06:02:21;95129.81;;;27.67;35.94
77288;BME280;66345;42.694;23.346;2023-08-07T06:04:47;95125.41;;;28.16;34.92
77288;BME280;66345;42.694;23.346;2023-08-07T06:07:15;95129.19;;;27.15;35.92
77288;BME280;66345;42.694;23.346;2023-08-07T06:09:40;95134.28;;;27.03;36.41
77288;BME280;66345;42.694;23.346;2023-08-07T06:12:06;95133.63;;;27.11;36.02
77288;BME280;66345;42.694;23.346;2023-08-07T06:14:32;95123.09;;;29.78;31.91
77288;BME280;66345;42.694;23.346;2023-08-07T06:16:58;95129.19;;;28.42;33.88
77288;BME280;66345;42.694;23.346;2023-08-07T06:19:26;95122.81;;;29.40;32.02
77288;BME280;66345;42.694;23.346;2023-08-07T06:21:52;95120.19;;;27.70;34.59
77288;BME280;66345;42.694;23.346;2023-08-07T06:24:18;95129.84;;;29.81;31.46
77288;BME280;66345;42.694;23.346;2023-08-07T06:26:43;95124.72;;;29.88;31.29
77288;BME280;66345;42.694;23.346;2023-08-07T06:29:09;95116.69;;;30.61;29.91
77288;BME280;66345;42.694;23.346;2023-08-07T06:31:34;95119.56;;;30.82;29.78
77288;BME280;66345;42.694;23.346;2023-08-07T06:34:00;95128.06;;;29.85;30.42
77288;BME280;66345;42.694;23.346;2023-08-07T06:36:25;95117.84;;;30.69;29.79
77288;BME280;66345;42.694;23.346;2023-08-07T06:38:51;95111.88;;;32.32;26.57
77288;BME280;66345;42.694;23.346;2023-08-07T06:41:17;95111.69;;;31.27;27.98
77288;BME280;66345;42.694;23.346;2023-08-07T06:43:42;95113.06;;;32.97;25.94
77288;BME280;66345;42.694;23.346;2023-08-07T06:46:08;95117.41;;;33.10;24.85
77288;BME280;66345;42.694;23.346;2023-08-07T06:48:33;95135.06;;;30.69;28.40
77288;BME280;66345;42.694;23.346;2023-08-07T06:50:59;95118.09;;;30.93;27.37
77288;BME280;66345;42.694;23.346;2023-08-07T06:53:24;95121.50;;;32.58;24.98
77288;BME280;66345;42.694;23.346;2023-08-07T06:55:50;95127.31;;;33.84;23.91
77288;BME280;66345;42.694;23.346;2023-08-07T06:58:15;95123.47;;;32.91;23.85
77288;BME280;66345;42.694;23.346;2023-08-07T07:00:41;95125.94;;;32.51;23.69
77288;BME280;66345;42.694;23.346;2023-08-07T07:03:06;95123.50;;;32.49;24.08
77288;BME280;66345;42.694;23.346;2023-08-07T07:05:34;95123.41;;;33.24;23.50
77288;BME280;66345;42.694;23.346;2023-08-07T07:08:00;95132.84;;;33.97;22.35
77288;BME280;66345;42.694;23.346;2023-08-07T07:10:25;95119.09;;;33.72;23.44
77288;BME280;66345;42.694;23.346;2023-08-07T07:12:51;95127.06;;;34.94;21.72
77288;BME280;66345;42.694;23.346;2023-08-07T07:15:17;95125.22;;;33.32;24.14
77288;BME280;66345;42.694;23.346;2023-08-07T07:17:43;95120.81;;;33.64;23.84
77288;BME280;66345;42.694;23.346;2023-08-07T07:20:09;95114.94;;;34.03;23.02
77288;BME280;66345;42.694;23.346;2023-08-07T07:22:34;95117.34;;;34.04;22.05
77288;BME280;66345;42.694;23.346;2023-08-07T07:25:00;95113.41;;;32.95;23.48
77288;BME280;66345;42.694;23.346;2023-08-07T07:27:25;95116.94;;;34.42;21.91
77288;BME280;66345;42.694;23.346;2023-08-07T07:29:51;95104.41;;;34.89;21.58
77288;BME280;66345;42.694;23.346;2023-08-07T07:32:18;95118.00;;;34.54;22.18
77288;BME280;66345;42.694;23.346;2023-08-07T07:34:43;95109.47;;;35.30;21.27
77288;BME280;66345;42.694;23.346;2023-08-07T07:37:09;95103.25;;;33.69;22.79
77288;BME280;66345;42.694;23.346;2023-08-07T07:39:35;95110.34;;;33.21;23.79
77288;BME280;66345;42.694;23.346;2023-08-07T07:42:01;95103.31;;;35.69;20.46
77288;BME280;66345;42.694;23.346;2023-08-07T07:44:26;95110.91;;;34.53;20.84
77288;BME280;66345;42.694;23.346;2023-08-07T07:46:52;95111.41;;;34.42;20.79
77288;BME280;66345;42.694;23.346;2023-08-07T07:49:17;95106.38;;;34.60;20.52
77288;BME280;66345;42.694;23.346;2023-08-07T07:51:43;95110.00;;;35.20;19.86
77288;BME280;66345;42.694;23.346;2023-08-07T07:54:10;95099.78;;;35.52;19.64
77288;BME280;66345;42.694;23.346;2023-08-07T07:56:35;95102.88;;;35.35;20.00
77288;BME280;66345;42.694;23.346;2023-08-07T07:59:01;95106.00;;;35.49;19.63
77288;BME280;66345;42.694;23.346;2023-08-07T08:01:27;95105.44;;;33.76;21.75
77288;BME280;66345;42.694;23.346;2023-08-07T08:03:53;95103.50;;;35.76;19.72
77288;BME280;66345;42.694;23.346;2023-08-07T08:06:19;95101.44;;;35.25;20.21
77288;BME280;66345;42.694;23.346;2023-08-07T08:08:44;95096.84;;;33.89;20.63
77288;BME280;66345;42.694;23.346;2023-08-07T08:11:10;95100.88;;;34.32;20.95
77288;BME280;66345;42.694;23.346;2023-08-07T08:13:36;95091.00;;;35.82;18.10
77288;BME280;66345;42.694;23.346;2023-08-07T08:16:04;95096.81;;;37.09;17.35
77288;BME280;66345;42.694;23.346;2023-08-07T08:18:30;95101.22;;;36.71;17.53
77288;BME280;66345;42.694;23.346;2023-08-07T08:20:57;95087.94;;;37.00;17.59
77288;BME280;66345;42.694;23.346;2023-08-07T08:23:22;95091.16;;;37.47;16.79
77288;BME280;66345;42.694;23.346;2023-08-07T08:25:48;95077.34;;;36.24;17.51
77288;BME280;66345;42.694;23.346;2023-08-07T08:28:14;95080.19;;;36.86;17.50
77288;BME280;66345;42.694;23.346;2023-08-07T08:30:39;95085.16;;;36.38;17.95
77288;BME280;66345;42.694;23.346;2023-08-07T08:33:05;95082.72;;;37.17;16.45
77288;BME280;66345;42.694;23.346;2023-08-07T08:35:31;95077.50;;;36.89;17.27
77288;BME280;66345;42.694;23.346;2023-08-07T08:37:56;95072.34;;;37.57;16.72
77288;BME280;66345;42.694;23.346;2023-08-07T08:40:23;95064.19;;;36.18;18.07
77288;BME280;66345;42.694;23.346;2023-08-07T08:42:49;95069.34;;;37.69;16.25
77288;BME280;66345;42.694;23.346;2023-08-07T08:45:18;95065.75;;;37.91;16.35
77288;BME280;66345;42.694;23.346;2023-08-07T08:47:45;95067.50;;;37.50;17.21
77288;BME280;66345;42.694;23.346;2023-08-07T08:50:13;95066.59;;;35.84;17.98
77288;BME280;66345;42.694;23.346;2023-08-07T08:52:42;95064.91;;;34.41;20.04
77288;BME280;66345;42.694;23.346;2023-08-07T08:55:10;95057.81;;;36.94;17.39
77288;BME280;66345;42.694;23.346;2023-08-07T08:57:37;95064.50;;;34.98;18.89
77288;BME280;66345;42.694;23.346;2023-08-07T09:00:03;95058.84;;;35.90;18.89
77288;BME280;66345;42.694;23.346;2023-08-07T09:02:44;95053.94;;;35.83;18.30
77288;BME280;66345;42.694;23.346;2023-08-07T09:05:09;95048.59;;;37.10;17.25
77288;BME280;66345;42.694;23.346;2023-08-07T09:07:35;95048.72;;;38.53;16.17
77288;BME280;66345;42.694;23.346;2023-08-07T09:10:02;95052.34;;;37.70;16.96
77288;BME280;66345;42.694;23.346;2023-08-07T09:12:32;95057.13;;;37.96;16.60
77288;BME280;66345;42.694;23.346;2023-08-07T09:14:58;95057.22;;;38.67;15.57
77288;BME280;66345;42.694;23.346;2023-08-07T09:17:31;95060.84;;;37.32;16.63
77288;BME280;66345;42.694;23.346;2023-08-07T09:19:59;95053.88;;;36.53;18.20
77288;BME280;66345;42.694;23.346;2023-08-07T09:22:25;95038.94;;;37.46;17.14
77288;BME280;66345;42.694;23.346;2023-08-07T09:24:51;95043.09;;;36.67;17.77
77288;BME280;66345;42.694;23.346;2023-08-07T09:27:18;95044.66;;;37.57;17.17
77288;BME280;66345;42.694;23.346;2023-08-07T09:29:46;95042.88;;;36.57;17.44
77288;BME280;66345;42.694;23.346;2023-08-07T09:32:12;95030.44;;;37.58;17.66
77288;BME280;66345;42.694;23.346;2023-08-07T09:34:39;95034.03;;;38.49;16.21
77288;BME280;66345;42.694;23.346;2023-08-07T09:37:07;95028.13;;;38.91;16.57
77288;BME280;66345;42.694;23.346;2023-08-07T09:39:34;95028.31;;;39.57;15.99
77288;BME280;66345;42.694;23.346;2023-08-07T09:42:01;95028.63;;;38.26;16.86
77288;BME280;66345;42.694;23.346;2023-08-07T09:44:35;95027.25;;;39.72;15.00
77288;BME280;66345;42.694;23.346;2023-08-07T09:47:22;95021.16;;;37.24;17.34
77288;BME280;66345;42.694;23.346;2023-08-07T09:49:48;95009.03;;;37.32;17.74
77288;BME280;66345;42.694;23.346;2023-08-07T09:52:14;95020.56;;;38.47;16.37
77288;BME280;66345;42.694;23.346;2023-08-07T09:54:41;95028.25;;;38.01;16.64
77288;BME280;66345;42.694;23.346;2023-08-07T09:57:07;95020.31;;;39.48;16.08
77288;BME280;66345;42.694;23.346;2023-08-07T09:59:33;95012.34;;;38.58;16.54
77288;BME280;66345;42.694;23.346;2023-08-07T10:02:00;95020.75;;;37.75;16.88
77288;BME280;66345;42.694;23.346;2023-08-07T10:04:29;95020.13;;;37.32;17.83
77288;BME280;66345;42.694;23.346;2023-08-07T10:06:57;95016.81;;;38.33;16.19
77288;BME280;66345;42.694;23.346;2023-08-07T10:09:24;95015.97;;;38.62;16.07
77288;BME280;66345;42.694;23.346;2023-08-07T10:11:50;95019.28;;;39.16;15.97
77288;BME280;66345;42.694;23.346;2023-08-07T10:14:16;95014.72;;;39.37;14.79
77288;BME280;66345;42.694;23.346;2023-08-07T10:16:42;95008.69;;;37.60;16.46
77288;BME280;66345;42.694;23.346;2023-08-07T10:19:09;95010.97;;;38.11;16.31
77288;BME280;66345;42.694;23.346;2023-08-07T10:21:36;95011.56;;;37.41;17.03
77288;BME280;66345;42.694;23.346;2023-08-07T10:24:04;95007.88;;;36.87;17.29
77288;BME280;66345;42.694;23.346;2023-08-07T10:26:32;95009.97;;;37.40;16.71
77288;BME280;66345;42.694;23.346;2023-08-07T10:29:00;95009.44;;;36.85;17.36
77288;BME280;66345;42.694;23.346;2023-08-07T10:31:27;95011.38;;;36.61;18.14
77288;BME280;66345;42.694;23.346;2023-08-07T10:33:53;95023.97;;;36.20;18.11
77288;BME280;66345;42.694;23.346;2023-08-07T10:36:19;95009.91;;;34.76;20.44
77288;BME280;66345;42.694;23.346;2023-08-07T10:38:44;95014.34;;;34.49;19.70
77288;BME280;66345;42.694;23.346;2023-08-07T10:41:12;95015.09;;;33.53;21.55
77288;BME280;66345;42.694;23.346;2023-08-07T10:43:43;95001.69;;;33.15;21.81
77288;BME280;66345;42.694;23.346;2023-08-07T10:46:14;95006.66;;;32.52;22.56
77288;BME280;66345;42.694;23.346;2023-08-07T10:48:41;95007.88;;;30.79;24.43
77288;BME280;66345;42.694;23.346;2023-08-07T10:51:07;95008.50;;;30.11;25.48
77288;BME280;66345;42.694;23.346;2023-08-07T10:53:38;94994.59;;;29.39;26.83
77288;BME280;66345;42.694;23.346;2023-08-07T10:56:08;95004.06;;;29.24;27.48
77288;BME280;66345;42.694;23.346;2023-08-07T10:58:38;95009.81;;;28.96;28.08
77288;BME280;66345;42.694;23.346;2023-08-07T11:01:27;94996.69;;;28.36;28.27
77288;BME280;66345;42.694;23.346;2023-08-07T11:06:35;94990.97;;;27.79;28.18
77288;BME280;66345;42.694;23.346;2023-08-07T11:09:02;94993.03;;;27.96;28.69
77288;BME280;66345;42.694;23.346;2023-08-07T11:11:29;94985.34;;;27.98;28.91
77288;BME280;66345;42.694;23.346;2023-08-07T11:13:55;94984.97;;;28.36;28.84
77288;BME280;66345;42.694;23.346;2023-08-07T11:16:21;94966.47;;;28.10;29.14
77288;BME280;66345;42.694;23.346;2023-08-07T11:18:49;94971.13;;;28.32;28.46
77288;BME280;66345;42.694;23.346;2023-08-07T11:21:14;94965.06;;;28.35;28.39
77288;BME280;66345;42.694;23.346;2023-08-07T11:23:40;94963.06;;;28.27;29.16
77288;BME280;66345;42.694;23.346;2023-08-07T11:26:06;94956.94;;;28.53;29.02
77288;BME280;66345;42.694;23.346;2023-08-07T11:28:32;94953.53;;;28.47;28.76
77288;BME280;66345;42.694;23.346;2023-08-07T11:30:58;94950.75;;;28.07;29.35
77288;BME280;66345;42.694;23.346;2023-08-07T11:33:25;94956.59;;;28.23;30.11
77288;BME280;66345;42.694;23.346;2023-08-07T11:35:51;94954.41;;;28.65;28.80
77288;BME280;66345;42.694;23.346;2023-08-07T11:38:49;94952.69;;;28.38;29.69
77288;BME280;66345;42.694;23.346;2023-08-07T11:41:16;94945.31;;;28.38;29.77
77288;BME280;66345;42.694;23.346;2023-08-07T11:43:42;94948.63;;;28.66;28.94
77288;BME280;66345;42.694;23.346;2023-08-07T11:46:10;94961.44;;;28.57;28.62
77288;BME280;66345;42.694;23.346;2023-08-07T11:48:40;94951.09;;;28.37;29.79
77288;BME280;66345;42.694;23.346;2023-08-07T11:51:06;94944.34;;;28.12;29.43
77288;BME280;66345;42.694;23.346;2023-08-07T11:53:34;94953.16;;;28.09;29.72
77288;BME280;66345;42.694;23.346;2023-08-07T11:56:02;94955.84;;;28.00;30.09
77288;BME280;66345;42.694;23.346;2023-08-07T11:58:34;94955.50;;;28.02;29.32
77288;BME280;66345;42.694;23.346;2023-08-07T12:01:12;94957.66;;;28.36;29.26
77288;BME280;66345;42.694;23.346;2023-08-07T12:03:42;94956.13;;;28.52;28.68
77288;BME280;66345;42.694;23.346;2023-08-07T12:06:09;94954.50;;;28.42;29.12
77288;BME280;66345;42.694;23.346;2023-08-07T12:08:37;94940.31;;;28.80;28.53
77288;BME280;66345;42.694;23.346;2023-08-07T12:11:04;94940.00;;;28.82;29.54
77288;BME280;66345;42.694;23.346;2023-08-07T12:13:30;94939.19;;;28.72;29.54
77288;BME280;66345;42.694;23.346;2023-08-07T12:15:57;94925.13;;;28.96;28.83
77288;BME280;66345;42.694;23.346;2023-08-07T12:18:25;94926.41;;;29.08;28.99
77288;BME280;66345;42.694;23.346;2023-08-07T12:20:52;94928.88;;;28.69;28.86
77288;BME280;66345;42.694;23.346;2023-08-07T12:23:20;94925.00;;;28.62;29.85
77288;BME280;66345;42.694;23.346;2023-08-07T12:25:46;94922.94;;;28.76;30.26
77288;BME280;66345;42.694;23.346;2023-08-07T12:28:12;94921.31;;;28.58;29.99
77288;BME280;66345;42.694;23.346;2023-08-07T12:30:37;94919.41;;;28.75;30.14
77288;BME280;66345;42.694;23.346;2023-08-07T12:33:04;94925.19;;;28.74;29.62
77288;BME280;66345;42.694;23.346;2023-08-07T12:35:34;94917.94;;;28.69;29.99
77288;BME280;66345;42.694;23.346;2023-08-07T12:38:00;94919.16;;;28.46;30.61
77288;BME280;66345;42.694;23.346;2023-08-07T12:40:27;94924.13;;;28.92;30.47
77288;BME280;66345;42.694;23.346;2023-08-07T12:42:52;94923.34;;;29.00;30.70
77288;BME280;66345;42.694;23.346;2023-08-07T12:45:18;94922.88;;;29.16;30.22
77288;BME280;66345;42.694;23.346;2023-08-07T12:47:45;94938.44;;;28.98;30.02
77288;BME280;66345;42.694;23.346;2023-08-07T12:50:11;94930.81;;;28.78;31.19
77288;BME280;66345;42.694;23.346;2023-08-07T12:52:37;94936.88;;;28.57;31.49
77288;BME280;66345;42.694;23.346;2023-08-07T12:55:03;94925.06;;;28.39;31.61
77288;BME280;66345;42.694;23.346;2023-08-07T12:57:31;94939.81;;;28.30;31.97